Time;durP1;ratioP1;P1;durP2;ratioP2;P2;SDS_P1;SDS_P2;PMS_P1;PMS_P2;Temp;Humidity;BMP_temperature;BMP_pressure;BME280_temperature;BME280_humidity;BME280_pressure;Samples;Min_cycle;Max_cycle;Signal;HPM_P1;HPM_P2
2022/11/11 00:02:39;;;;;;;22.23;14.27;;;;;;;5.23;100.00;100235.54;2211324;81;21336;-85
2022/11/11 00:05:41;;;;;;;17.67;13.60;;;;;;;5.24;100.00;100229.55;2178614;82;20980;-84
2022/11/11 00:08:42;;;;;;;25.83;16.00;;;;;;;5.21;100.00;100237.56;2205936;81;21374;-85
2022/11/11 00:11:42;;;;;;;28.93;15.80;;;;;;;5.19;100.00;100235.25;2211359;81;21372;-84
2022/11/11 00:14:43;;;;;;;27.73;16.40;;;;;;;5.17;100.00;100238.16;2211286;81;20964;-85
2022/11/11 00:28:00;;;;;;;23.93;16.07;;;;;;;5.31;100.00;100248.91;2128605;84;20953;-77
2022/11/11 00:31:00;;;;;;;23.53;16.73;;;;;;;5.29;100.00;100251.81;2129118;84;20958;-83
2022/11/11 00:34:01;;;;;;;28.70;16.90;;;;;;;5.32;100.00;100257.16;2128791;84;21325;-83
2022/11/11 00:37:01;;;;;;;30.93;17.27;;;;;;;5.35;100.00;100255.62;2129512;84;20969;-82
2022/11/11 00:40:02;;;;;;;32.97;18.40;;;;;;;5.40;100.00;100254.59;2129233;84;20977;-83
2022/11/11 00:43:02;;;;;;;29.53;18.20;;;;;;;5.60;100.00;100251.38;2128644;84;20922;-83
2022/11/11 00:52:40;;;;;;;24.93;17.93;;;;;;;5.83;100.00;100247.82;2128648;83;21044;-82
2022/11/11 00:55:40;;;;;;;29.90;18.67;;;;;;;5.98;100.00;100242.18;2128868;84;20984;-82
2022/11/11 00:58:40;;;;;;;36.60;19.97;;;;;;;6.12;100.00;100236.45;2128609;84;20989;-83
2022/11/11 01:01:41;;;;;;;27.80;18.90;;;;;;;6.25;100.00;100234.96;2128762;84;21334;-83
2022/11/11 01:04:41;;;;;;;32.23;20.37;;;;;;;6.33;100.00;100233.24;2128747;84;20997;-82
2022/11/11 01:07:42;;;;;;;32.80;19.57;;;;;;;6.42;100.00;100233.22;2141661;83;21007;-82
2022/11/11 01:10:43;;;;;;;28.43;20.40;;;;;;;6.48;100.00;100219.26;2129079;84;21374;-83
2022/11/11 01:13:43;;;;;;;31.43;20.00;;;;;;;6.51;100.00;100215.11;2129151;84;20992;-82
2022/11/11 01:16:43;;;;;;;36.60;20.10;;;;;;;6.56;100.00;100217.94;2128952;84;21000;-82
2022/11/11 01:19:43;;;;;;;31.83;19.43;;;;;;;6.60;100.00;100225.05;2129037;84;20961;-82
2022/11/11 01:22:44;;;;;;;34.27;19.90;;;;;;;6.67;100.00;100221.95;2132130;83;21052;-81
2022/11/11 01:25:45;;;;;;;34.43;19.80;;;;;;;6.73;100.00;100224.84;2128382;83;21328;-82
2022/11/11 01:28:45;;;;;;;32.70;19.50;;;;;;;6.80;100.00;100221.73;2129507;84;20981;-82
2022/11/11 01:31:45;;;;;;;30.87;19.77;;;;;;;6.90;100.00;100228.25;2129937;84;20969;-82
2022/11/11 01:34:45;;;;;;;29.60;18.73;;;;;;;6.90;100.00;100228.25;2129342;84;20989;-82
2022/11/11 01:37:46;;;;;;;34.93;20.77;;;;;;;6.92;100.00;100218.43;2129276;84;21349;-82
2022/11/11 01:40:46;;;;;;;32.03;19.10;;;;;;;6.94;100.00;100217.23;2128679;84;20930;-83
2022/11/11 01:43:47;;;;;;;35.63;19.47;;;;;;;6.95;100.00;100214.72;2128876;84;20961;-82
2022/11/11 01:46:47;;;;;;;35.87;19.87;;;;;;;6.97;100.00;100216.98;2128974;84;20942;-82
2022/11/11 01:49:47;;;;;;;33.07;19.87;;;;;;;7.00;100.00;100217.53;2129005;84;20994;-83
2022/11/11 01:52:48;;;;;;;32.37;19.53;;;;;;;7.02;100.00;100223.69;2129084;84;21063;-82
2022/11/11 01:55:48;;;;;;;29.37;19.20;;;;;;;7.02;100.00;100224.58;2128437;84;21020;-83
2022/11/11 01:58:51;;;;;;;29.00;18.43;;;;;;;7.03;100.00;100218.97;2116809;84;20957;-83
2022/11/11 02:01:51;;;;;;;31.43;18.93;;;;;;;7.01;100.00;100221.50;2128871;84;20914;-82
2022/11/11 02:08:10;;;;;;;36.27;20.10;;;;;;;7.01;100.00;100229.28;2128071;84;20931;-83
2022/11/11 02:11:11;;;;;;;29.90;18.37;;;;;;;7.06;100.00;100233.81;2128250;84;20937;-84
2022/11/11 02:17:30;;;;;;;26.13;18.20;;;;;;;7.12;100.00;100236.29;2127780;84;20973;-85
2022/11/11 02:20:30;;;;;;;38.50;19.60;;;;;;;7.18;100.00;100242.18;2127749;84;21000;-83
2022/11/11 02:23:31;;;;;;;26.23;18.77;;;;;;;7.20;100.00;100235.35;2127554;84;21008;-85
2022/11/11 02:26:31;;;;;;;32.60;19.90;;;;;;;7.27;100.00;100237.42;2127689;84;20965;-85
2022/11/11 02:29:31;;;;;;;28.97;17.10;;;;;;;7.30;100.00;100236.27;2127760;84;20926;-85
2022/11/11 02:32:32;;;;;;;34.57;17.30;;;;;;;7.34;99.99;100238.19;2127652;84;21024;-85
2022/11/11 02:35:32;;;;;;;24.43;16.57;;;;;;;7.39;99.98;100240.59;2127759;84;21034;-85
2022/11/11 02:38:33;;;;;;;27.57;17.20;;;;;;;7.43;99.82;100242.92;2127997;84;20969;-85
2022/11/11 02:44:57;;;;;;;23.77;17.33;;;;;;;7.47;99.48;100231.44;2127619;84;20957;-85
2022/11/11 02:47:52;;;;;;;30.33;18.43;;;;;;;7.47;99.26;100239.23;2127637;84;21106;-84
2022/11/11 02:50:53;;;;;;;30.73;17.40;;;;;;;7.48;99.15;100228.02;2127905;84;20953;-85
2022/11/11 02:54:01;;;;;;;24.67;17.77;;;;;;;7.48;98.95;100228.43;2127389;84;21019;-85
2022/11/11 02:57:08;;;;;;;32.20;18.03;;;;;;;7.47;98.88;100226.66;2127860;84;21357;-84
2022/11/11 03:00:00;;;;;;;28.30;17.87;;;;;;;7.46;98.90;100218.38;2127873;84;20897;-84
2022/11/11 03:03:00;;;;;;;26.03;18.97;;;;;;;7.45;98.81;100226.59;2127810;84;20953;-84
2022/11/11 03:06:01;;;;;;;29.07;17.37;;;;;;;7.45;98.70;100230.48;2127651;84;21294;-85
2022/11/11 03:09:01;;;;;;;27.13;17.40;;;;;;;7.42;98.78;100225.55;2127898;84;20985;-85
2022/11/11 03:12:01;;;;;;;26.73;17.63;;;;;;;7.38;98.81;100231.02;2127575;84;20953;-85
2022/11/11 03:15:02;;;;;;;28.00;18.13;;;;;;;7.39;99.05;100230.20;2127517;84;20992;-86
2022/11/11 03:18:02;;;;;;;30.03;18.43;;;;;;;7.38;99.00;100231.42;2127759;84;20989;-85
2022/11/11 03:21:05;;;;;;;28.97;18.37;;;;;;;7.38;99.11;100234.02;2127616;84;21345;-84
2022/11/11 03:24:06;;;;;;;29.77;18.17;;;;;;;7.40;99.23;100248.86;2140909;83;21011;-86
2022/11/11 03:27:06;;;;;;;33.23;18.30;;;;;;;7.41;99.34;100251.94;2150733;83;20913;-85
2022/11/11 03:30:07;;;;;;;24.80;16.50;;;;;;;7.43;99.19;100249.41;2150317;83;20980;-85
2022/11/11 03:33:07;;;;;;;25.67;17.40;;;;;;;7.45;99.32;100255.16;2150635;83;20948;-85
2022/11/11 03:36:08;;;;;;;22.97;16.33;;;;;;;7.51;99.29;100256.75;2150524;83;21370;-85
2022/11/11 03:39:08;;;;;;;28.10;17.27;;;;;;;7.53;99.05;100256.41;2150242;83;20964;-84
2022/11/11 03:42:08;;;;;;;28.50;17.77;;;;;;;7.55;98.99;100246.08;2150410;83;20940;-85
2022/11/11 03:45:09;;;;;;;28.70;17.43;;;;;;;7.54;99.00;100239.11;2150593;83;20945;-86
2022/11/11 03:48:09;;;;;;;30.10;18.60;;;;;;;7.50;98.67;100233.29;2150394;82;21356;-86
2022/11/11 03:51:10;;;;;;;31.80;18.00;;;;;;;7.42;98.54;100231.64;2150140;83;20968;-85
2022/11/11 03:54:10;;;;;;;27.33;16.83;;;;;;;7.38;98.65;100227.53;2150393;83;21051;-85
2022/11/11 04:00:29;;;;;;;30.57;18.23;;;;;;;7.27;98.72;100236.12;2150557;82;20964;-85
2022/11/11 04:10:22;;;;;;;24.70;17.17;;;;;;;7.20;98.59;100245.73;2150684;82;21411;-85
2022/11/11 04:16:41;;;;;;;32.57;18.43;;;;;;;7.08;98.02;100239.97;2150450;82;21012;-84
2022/11/11 04:23:00;;;;;;;25.10;17.50;;;;;;;7.05;98.47;100252.39;2147096;82;21024;-85
2022/11/11 04:26:01;;;;;;;27.90;17.50;;;;;;;7.07;98.34;100252.46;2127931;84;20945;-84
2022/11/11 04:32:37;;;;;;;28.50;18.00;;;;;;;7.03;98.13;100252.73;2127967;84;20921;-85
2022/11/11 04:35:35;;;;;;;26.20;17.33;;;;;;;7.03;98.13;100258.81;2128082;84;20985;-84
2022/11/11 04:41:55;;;;;;;27.30;18.23;;;;;;;6.98;98.05;100266.78;2126821;84;20993;-84
2022/11/11 04:48:17;;;;;;;33.97;19.30;;;;;;;6.95;98.24;100279.61;2127238;84;20929;-85
2022/11/11 04:51:14;;;;;;;29.70;17.93;;;;;;;6.97;98.62;100281.88;2126847;84;20969;-86
2022/11/11 04:54:15;;;;;;;30.67;18.40;;;;;;;7.01;98.47;100282.52;2125313;84;21482;-85
2022/11/11 04:57:15;;;;;;;28.13;19.33;;;;;;;7.00;98.15;100272.05;2125906;84;20980;-84
2022/11/11 05:00:15;;;;;;;32.10;19.37;;;;;;;6.98;98.16;100261.59;2127130;84;20957;-85
2022/11/11 05:03:17;;;;;;;33.13;20.53;;;;;;;6.99;98.21;100265.08;2127137;84;21421;-85
2022/11/11 05:09:35;;;;;;;28.83;19.73;;;;;;;7.05;98.57;100276.16;2126749;84;21381;-85
2022/11/11 05:12:36;;;;;;;33.97;20.97;;;;;;;7.08;98.46;100278.91;2126449;84;20969;-85
2022/11/11 05:22:14;;;;;;;38.43;21.43;;;;;;;7.18;98.58;100298.02;2126874;84;20972;-85
2022/11/11 05:25:29;;;;;;;36.90;22.73;;;;;;;7.22;98.25;100302.54;2126663;83;21409;-85
2022/11/11 05:28:26;;;;;;;37.17;23.50;;;;;;;7.20;98.08;100306.77;2127215;84;21000;-84
2022/11/11 05:31:27;;;;;;;40.97;23.53;;;;;;;7.20;98.15;100300.28;2127996;84;20957;-85
2022/11/11 05:34:27;;;;;;;40.17;23.90;;;;;;;7.20;98.24;100297.27;2127819;84;21642;-85
2022/11/11 05:37:28;;;;;;;43.27;25.20;;;;;;;7.21;98.23;100289.07;2127194;84;21102;-85
2022/11/11 05:40:28;;;;;;;41.77;25.90;;;;;;;7.22;98.17;100285.66;2127244;84;20933;-84
2022/11/11 05:43:28;;;;;;;48.00;26.57;;;;;;;7.23;98.30;100284.84;2127178;84;20988;-85
2022/11/11 05:46:29;;;;;;;42.87;25.83;;;;;;;7.22;98.08;100287.84;2126955;84;21297;-85
2022/11/11 05:49:29;;;;;;;46.17;26.70;;;;;;;7.22;98.03;100286.55;2127115;84;21008;-85
2022/11/11 05:52:30;;;;;;;49.30;27.40;;;;;;;7.23;98.11;100296.12;2127370;84;20921;-86
2022/11/11 05:55:30;;;;;;;54.03;28.77;;;;;;;7.25;97.98;100300.09;2127439;84;21028;-86
2022/11/11 05:58:30;;;;;;;52.27;28.03;;;;;;;7.26;98.04;100293.67;2127943;84;21313;-83
2022/11/11 06:01:31;;;;;;;48.83;29.40;;;;;;;7.31;97.91;100305.58;2128075;84;21017;-83
2022/11/11 06:04:33;;;;;;;46.33;29.20;;;;;;;7.33;97.78;100306.54;2127993;84;20990;-84
2022/11/11 06:07:32;;;;;;;49.27;30.20;;;;;;;7.35;97.79;100308.80;2127644;84;20981;-85
2022/11/11 06:10:32;;;;;;;47.63;29.27;;;;;;;7.41;97.71;100307.80;2127694;84;20941;-85
2022/11/11 06:13:33;;;;;;;46.77;28.73;;;;;;;7.38;97.35;100303.75;2126957;84;21393;-85
2022/11/11 06:16:33;;;;;;;46.77;30.57;;;;;;;7.35;97.32;100297.11;2126875;84;20960;-85
2022/11/11 06:19:33;;;;;;;54.83;32.27;;;;;;;7.34;97.41;100300.12;2127317;84;20941;-84
2022/11/11 06:29:11;;;;;;;52.13;31.30;;;;;;;7.40;97.25;100323.31;2126886;84;20985;-86
2022/11/11 06:32:12;;;;;;;56.10;33.03;;;;;;;7.41;97.18;100324.68;2127830;84;20941;-84
2022/11/11 06:35:12;;;;;;;59.13;32.97;;;;;;;7.44;97.11;100325.23;2127274;84;20968;-85
2022/11/11 06:38:13;;;;;;;51.50;31.17;;;;;;;7.46;97.08;100328.80;2127617;84;21021;-85
2022/11/11 06:41:14;;;;;;;56.20;32.00;;;;;;;7.49;96.95;100334.14;2127736;84;20930;-85
2022/11/11 06:44:13;;;;;;;58.03;32.03;;;;;;;7.54;96.97;100335.25;2128049;84;21016;-86
2022/11/11 06:47:14;;;;;;;49.97;32.03;;;;;;;7.54;96.63;100336.55;2128228;84;21030;-85
2022/11/11 06:50:16;;;;;;;49.90;31.87;;;;;;;7.53;96.44;100343.86;2115572;84;20930;-85
2022/11/11 06:53:17;;;;;;;53.33;31.47;;;;;;;7.52;96.36;100332.98;2128000;84;21001;-85
2022/11/11 06:56:17;;;;;;;57.83;33.17;;;;;;;7.53;96.45;100330.87;2127926;84;21032;-85
2022/11/11 06:59:18;;;;;;;55.43;33.50;;;;;;;7.53;96.53;100317.88;2128339;84;21325;-84
2022/11/11 07:02:18;;;;;;;57.63;34.27;;;;;;;7.54;96.31;100314.46;2129133;84;20996;-84
2022/11/11 07:05:18;;;;;;;50.20;32.80;;;;;;;7.55;96.39;100311.94;2128241;84;20992;-85
2022/11/11 07:08:19;;;;;;;53.10;30.70;;;;;;;7.58;96.29;100305.98;2128349;84;20921;-84
2022/11/11 07:11:19;;;;;;;51.50;29.83;;;;;;;7.62;96.14;100302.72;2128199;84;21025;-86
2022/11/11 07:14:20;;;;;;;52.70;30.77;;;;;;;7.67;96.05;100294.31;2128188;84;20942;-85
2022/11/11 07:17:20;;;;;;;53.23;31.63;;;;;;;7.72;95.83;100293.64;2128198;84;20990;-83
2022/11/11 07:20:21;;;;;;;47.77;30.40;;;;;;;7.74;95.71;100281.59;2128584;84;20941;-84
2022/11/11 07:23:21;;;;;;;54.33;29.53;;;;;;;7.76;95.45;100292.95;2128018;84;21377;-84
2022/11/11 07:26:21;;;;;;;48.67;29.73;;;;;;;7.78;95.47;100285.70;2127458;83;21048;-84
2022/11/11 07:29:22;;;;;;;48.70;29.53;;;;;;;7.82;95.25;100292.86;2128126;84;20965;-84
2022/11/11 07:32:22;;;;;;;48.67;31.03;;;;;;;7.88;94.93;100290.54;2128231;84;20973;-84
2022/11/11 07:35:23;;;;;;;55.10;30.17;;;;;;;7.94;95.14;100288.22;2128123;84;21005;-85
2022/11/11 07:38:23;;;;;;;49.53;31.93;;;;;;;8.03;94.84;100295.54;2127335;84;21336;-84
2022/11/11 07:41:23;;;;;;;50.33;30.17;;;;;;;8.08;94.46;100290.55;2127584;84;20977;-84
2022/11/11 07:44:24;;;;;;;45.20;29.27;;;;;;;8.17;94.60;100289.24;2127300;84;21125;-84
2022/11/11 07:47:25;;;;;;;44.50;28.33;;;;;;;8.28;94.40;100296.22;2127076;84;21452;-84
2022/11/11 07:50:25;;;;;;;46.07;28.73;;;;;;;8.39;93.90;100289.80;2127493;84;20961;-84
2022/11/11 07:53:27;;;;;;;44.63;27.63;;;;;;;8.54;93.98;100295.66;2127330;84;20961;-84
2022/11/11 07:56:26;;;;;;;44.53;27.43;;;;;;;8.70;93.59;100302.45;2126603;84;21032;-83
2022/11/11 07:59:26;;;;;;;48.83;27.60;;;;;;;8.77;92.77;100308.39;2127526;84;21017;-84
2022/11/11 08:02:27;;;;;;;53.33;29.37;;;;;;;8.84;92.88;100311.73;2127565;84;20976;-85
2022/11/11 08:05:27;;;;;;;45.40;28.70;;;;;;;8.95;92.45;100306.97;2127978;84;21633;-84
2022/11/11 08:08:27;;;;;;;47.80;27.03;;;;;;;9.13;92.50;100304.22;2127772;84;20972;-84
2022/11/11 08:14:47;;;;;;;44.13;26.77;;;;;;;9.38;91.25;100309.59;2127815;84;20942;-84
2022/11/11 08:17:47;;;;;;;40.83;26.30;;;;;;;9.54;91.46;100310.70;2127993;84;21012;-85
2022/11/11 08:20:48;;;;;;;42.30;25.43;;;;;;;9.71;91.10;100306.14;2128154;84;20969;-84
2022/11/11 08:23:48;;;;;;;45.13;26.60;;;;;;;9.87;90.85;100306.31;2128118;84;20933;-84
2022/11/11 08:26:49;;;;;;;44.77;25.10;;;;;;;10.02;90.72;100309.48;2128143;84;20957;-85
2022/11/11 08:29:49;;;;;;;43.40;24.33;;;;;;;10.11;89.79;100312.86;2127812;84;20954;-84
2022/11/11 08:32:49;;;;;;;37.17;23.30;;;;;;;10.13;89.54;100313.80;2127896;84;21529;-83
2022/11/11 08:35:52;;;;;;;35.85;22.85;;;;;;;10.23;89.69;100301.59;2128099;84;20945;-83
2022/11/11 08:38:50;;;;;;;42.23;22.60;;;;;;;10.41;89.64;100302.28;2128326;84;20985;-84
2022/11/11 08:41:50;;;;;;;37.95;22.10;;;;;;;10.55;88.90;100301.47;2128062;84;20937;-85
2022/11/11 08:44:51;;;;;;;39.18;20.37;;;;;;;10.64;88.42;100304.40;2128224;84;21306;-83
2022/11/11 08:47:51;;;;;;;35.25;20.02;;;;;;;10.75;88.29;100310.88;2128919;84;20995;-83
2022/11/11 08:50:52;;;;;;;32.15;18.57;;;;;;;10.89;87.10;100313.07;2128603;84;21016;-84
2022/11/11 08:53:52;;;;;;;31.50;18.45;;;;;;;11.03;87.16;100308.77;2128454;84;20992;-83
2022/11/11 08:56:53;;;;;;;29.07;17.98;;;;;;;11.15;87.01;100317.02;2128487;84;20977;-83
2022/11/11 08:59:53;;;;;;;32.73;17.80;;;;;;;11.26;86.20;100318.67;2128599;84;21373;-85
2022/11/11 09:02:53;;;;;;;25.43;17.02;;;;;;;11.31;86.18;100320.16;2128560;84;20980;-84
2022/11/11 09:05:54;;;;;;;29.35;16.82;;;;;;;11.33;85.07;100320.68;2128385;84;20988;-84
2022/11/11 09:08:54;;;;;;;27.73;15.63;;;;;;;11.34;85.28;100315.92;2128406;84;20993;-84
2022/11/11 09:11:54;;;;;;;31.68;16.25;;;;;;;11.31;84.84;100310.59;2128768;84;20962;-84
2022/11/11 09:14:55;;;;;;;27.32;14.50;;;;;;;11.27;85.10;100315.25;2128623;84;20965;-85
2022/11/11 09:17:55;;;;;;;26.48;15.58;;;;;;;11.27;85.31;100312.64;2128893;84;21008;-82
2022/11/11 09:20:56;;;;;;;26.60;15.55;;;;;;;11.35;85.63;100325.54;2128805;84;20934;-83
2022/11/11 09:23:59;;;;;;;30.25;15.05;;;;;;;11.39;85.12;100327.83;2129429;82;20961;-84
2022/11/11 09:26:57;;;;;;;28.07;15.32;;;;;;;11.47;84.99;100328.55;2151273;83;21015;-84
2022/11/11 09:29:57;;;;;;;24.45;15.08;;;;;;;11.53;85.19;100336.11;2151630;83;21337;-83
2022/11/11 09:32:58;;;;;;;27.27;14.68;;;;;;;11.66;85.06;100326.50;2151442;83;20960;-85
2022/11/11 09:35:58;;;;;;;30.27;13.58;;;;;;;11.75;84.00;100331.59;2150674;83;21091;-84
2022/11/11 09:38:58;;;;;;;23.00;13.70;;;;;;;11.86;83.79;100328.03;2150105;83;20972;-85
2022/11/11 09:41:59;;;;;;;16.97;11.80;;;;;;;11.95;82.84;100328.73;2149476;83;20909;-85
2022/11/11 09:44:59;;;;;;;21.20;12.23;;;;;;;12.06;83.29;100319.05;2150189;83;21012;-85
2022/11/11 09:48:00;;;;;;;21.37;12.05;;;;;;;12.17;82.21;100322.42;2150120;83;20991;-83
2022/11/11 09:51:00;;;;;;;18.23;10.53;;;;;;;12.18;81.62;100313.73;2150407;83;20936;-84
2022/11/11 09:54:02;;;;;;;27.27;10.15;;;;;;;12.23;81.17;100310.82;2150266;83;21007;-84
2022/11/11 09:57:01;;;;;;;18.82;10.03;;;;;;;12.25;79.23;100309.13;2150585;83;21021;-84
2022/11/11 10:00:01;;;;;;;24.92;11.18;;;;;;;12.31;80.40;100307.58;2150101;83;20980;-85
2022/11/11 10:03:03;;;;;;;23.85;11.43;;;;;;;12.29;79.72;100305.76;2150135;83;21028;-83
2022/11/11 10:06:02;;;;;;;23.10;11.22;;;;;;;12.28;80.12;100298.33;2150608;83;20988;-82
2022/11/11 10:09:02;;;;;;;26.33;10.85;;;;;;;12.40;79.83;100301.70;2150519;83;21369;-84
2022/11/11 10:12:03;;;;;;;22.75;10.32;;;;;;;12.54;79.21;100288.56;2149942;83;20992;-83
2022/11/11 10:15:03;;;;;;;15.48;9.40;;;;;;;12.73;79.01;100296.48;2150229;83;20944;-83
2022/11/11 10:18:04;;;;;;;16.32;8.63;;;;;;;12.89;77.72;100286.86;2150735;83;21011;-84
2022/11/11 10:21:04;;;;;;;19.23;10.00;;;;;;;13.09;76.31;100283.45;2150673;82;20944;-84
2022/11/11 10:24:05;;;;;;;15.32;8.68;;;;;;;13.24;76.01;100289.53;2150687;83;20960;-84
2022/11/11 10:27:05;;;;;;;18.32;9.10;;;;;;;13.33;75.32;100288.02;2149440;83;21007;-85
2022/11/11 10:30:05;;;;;;;14.25;8.23;;;;;;;13.50;76.91;100280.95;2149648;83;21720;-85
2022/11/11 10:33:10;;;;;;;20.02;9.05;;;;;;;13.63;75.78;100285.20;2149728;83;20929;-83
2022/11/11 10:36:08;;;;;;;14.63;8.75;;;;;;;13.72;74.18;100271.41;2129031;83;21376;-81
2022/11/11 10:39:08;;;;;;;13.15;8.15;;;;;;;13.84;75.33;100269.47;2149764;83;21027;-85
2022/11/11 10:42:09;;;;;;;15.18;7.53;;;;;;;13.88;74.14;100269.59;2150421;83;20944;-85
2022/11/11 10:45:09;;;;;;;16.12;7.60;;;;;;;13.99;74.52;100256.70;2151100;83;20944;-84
2022/11/11 10:48:10;;;;;;;22.77;9.88;;;;;;;14.02;73.10;100252.82;2151091;83;21278;-85
2022/11/11 10:51:10;;;;;;;17.48;9.30;;;;;;;13.98;73.53;100247.94;2150976;83;20959;-85
2022/11/11 10:54:10;;;;;;;16.65;8.75;;;;;;;14.03;73.84;100255.91;2151108;83;20991;-85
2022/11/11 10:57:11;;;;;;;30.12;8.63;;;;;;;14.05;72.41;100261.19;2150398;83;21375;-84
2022/11/11 11:00:11;;;;;;;20.95;7.92;;;;;;;13.95;72.70;100255.75;2149689;83;20936;-84
2022/11/11 11:03:13;;;;;;;19.92;7.97;;;;;;;13.95;71.23;100253.13;2148446;83;21028;-84
2022/11/11 11:06:13;;;;;;;13.10;7.00;;;;;;;14.16;71.98;100259.66;2149803;83;20968;-85
2022/11/11 11:09:13;;;;;;;13.72;6.30;;;;;;;14.18;71.62;100257.95;2149931;82;21067;-84
2022/11/11 11:12:14;;;;;;;15.08;5.53;;;;;;;14.15;70.88;100261.83;2150173;83;20944;-84
2022/11/11 11:15:14;;;;;;;8.98;3.92;;;;;;;14.09;68.95;100261.70;2149895;83;20925;-83
2022/11/11 11:18:15;;;;;;;8.40;4.40;;;;;;;14.00;66.48;100255.41;2150109;83;21269;-83
2022/11/11 11:21:15;;;;;;;12.45;5.00;;;;;;;13.96;67.93;100256.63;2149833;83;20944;-84
2022/11/11 11:24:15;;;;;;;15.58;5.55;;;;;;;13.89;68.35;100257.36;2149514;83;20953;-84
2022/11/11 11:27:16;;;;;;;11.73;4.87;;;;;;;13.83;69.10;100250.21;2127813;83;21680;-83
2022/11/11 11:30:16;;;;;;;17.20;5.42;;;;;;;13.80;69.47;100253.20;2127588;84;20969;-85
2022/11/11 11:33:17;;;;;;;16.48;6.20;;;;;;;13.79;69.79;100249.69;2127653;84;20946;-84
2022/11/11 11:36:17;;;;;;;15.13;6.05;;;;;;;13.77;70.13;100255.76;2127410;84;21004;-84
2022/11/11 11:39:17;;;;;;;12.15;5.28;;;;;;;13.66;68.06;100252.91;2127405;84;21033;-83
2022/11/11 11:42:18;;;;;;;13.03;5.35;;;;;;;13.49;69.59;100257.78;2127545;84;20946;-85
2022/11/11 11:45:18;;;;;;;17.07;5.72;;;;;;;13.44;68.20;100255.47;2127236;84;21001;-84
2022/11/11 11:48:19;;;;;;;16.73;5.87;;;;;;;13.35;69.49;100250.91;2127622;84;20941;-85
2022/11/11 11:51:20;;;;;;;20.23;6.33;;;;;;;13.31;69.79;100263.91;2128035;84;20977;-84
2022/11/11 11:54:19;;;;;;;17.80;5.97;;;;;;;13.26;69.89;100258.56;2128047;84;21326;-84
2022/11/11 11:57:20;;;;;;;30.40;6.75;;;;;;;13.24;70.68;100263.31;2127352;84;21032;-83
2022/11/11 12:00:20;;;;;;;18.57;7.53;;;;;;;13.24;70.35;100256.75;2127566;84;21000;-83
2022/11/11 12:03:21;;;;;;;12.25;6.75;;;;;;;13.21;70.34;100261.92;2127278;84;21352;-84
2022/11/11 12:06:21;;;;;;;18.95;6.12;;;;;;;13.19;69.90;100251.83;2127036;84;20937;-84
2022/11/11 12:09:21;;;;;;;14.13;6.78;;;;;;;13.13;70.70;100247.72;2127979;84;20973;-83
2022/11/11 12:12:22;;;;;;;19.17;6.67;;;;;;;13.09;70.31;100244.13;2127927;84;20949;-85
2022/11/11 12:15:22;;;;;;;17.92;6.53;;;;;;;13.03;69.88;100242.68;2127748;84;20969;-84
2022/11/11 12:18:23;;;;;;;11.85;6.28;;;;;;;12.95;69.91;100245.50;2127961;84;20945;-85
2022/11/11 12:21:23;;;;;;;13.68;5.58;;;;;;;12.88;70.06;100241.84;2127564;84;20945;-83
2022/11/11 12:24:23;;;;;;;12.68;5.87;;;;;;;12.80;70.52;100236.84;2127066;84;21344;-83
2022/11/11 12:27:24;;;;;;;14.07;6.25;;;;;;;12.81;71.10;100242.97;2147955;83;21052;-84
2022/11/11 12:30:28;;;;;;;16.90;6.17;;;;;;;12.83;71.52;100236.91;2149290;82;20920;-84
2022/11/11 12:33:25;;;;;;;19.05;6.58;;;;;;;12.85;71.37;100234.33;2149427;83;21629;-84
2022/11/11 12:36:25;;;;;;;22.85;6.53;;;;;;;12.85;71.56;100229.09;2149226;83;21007;-83
2022/11/11 12:39:25;;;;;;;16.00;6.55;;;;;;;12.83;71.55;100227.75;2149923;83;20952;-83
2022/11/11 12:42:26;;;;;;;18.50;7.08;;;;;;;12.78;71.01;100227.17;2149655;83;20988;-84
2022/11/11 12:45:26;;;;;;;20.23;7.40;;;;;;;12.71;71.61;100220.89;2150084;82;21360;-84
2022/11/11 12:48:27;;;;;;;24.60;8.50;;;;;;;12.68;71.63;100216.46;2150305;83;20956;-83
2022/11/11 12:51:27;;;;;;;18.27;8.75;;;;;;;12.64;71.83;100226.40;2150246;83;20921;-84
2022/11/11 12:54:28;;;;;;;32.00;7.92;;;;;;;12.65;72.45;100216.38;2150128;83;21020;-84
2022/11/11 12:57:29;;;;;;;18.95;7.70;;;;;;;12.67;72.19;100216.00;2150357;82;21031;-83
2022/11/11 13:00:29;;;;;;;24.87;7.95;;;;;;;12.67;72.48;100215.11;2150624;83;20937;-83
2022/11/11 13:03:30;;;;;;;32.83;9.35;;;;;;;12.66;71.73;100216.84;2151248;82;21364;-83
2022/11/11 13:06:30;;;;;;;17.12;8.80;;;;;;;12.63;72.51;100215.45;2150668;83;20913;-83
2022/11/11 13:09:30;;;;;;;14.60;7.00;;;;;;;12.64;72.17;100217.23;2149716;83;20980;-83
2022/11/11 13:12:31;;;;;;;16.00;8.18;;;;;;;12.62;72.30;100209.76;2150049;83;21305;-83
2022/11/11 13:15:31;;;;;;;22.85;8.15;;;;;;;12.62;72.63;100209.76;2149771;83;20984;-84
2022/11/11 13:18:32;;;;;;;27.07;7.37;;;;;;;12.59;72.79;100212.30;2149923;83;20988;-84
2022/11/11 13:21:32;;;;;;;21.10;8.68;;;;;;;12.57;72.74;100213.99;2149285;83;20957;-84
2022/11/11 13:24:32;;;;;;;24.20;8.75;;;;;;;12.50;72.62;100221.66;2149530;83;20941;-83
2022/11/11 13:27:33;;;;;;;25.62;9.48;;;;;;;12.45;73.05;100213.68;2148850;83;21047;-83
2022/11/11 13:30:33;;;;;;;16.50;8.20;;;;;;;12.41;73.29;100202.23;2149182;83;20960;-82
2022/11/11 13:33:34;;;;;;;18.48;8.58;;;;;;;12.39;73.54;100208.28;2149673;83;20972;-84
2022/11/11 13:36:34;;;;;;;17.62;7.65;;;;;;;12.35;73.40;100206.01;2149729;83;21007;-83
2022/11/11 13:39:34;;;;;;;16.35;6.85;;;;;;;12.32;73.09;100212.89;2149628;83;20996;-84
2022/11/11 13:42:35;;;;;;;14.75;6.95;;;;;;;12.24;73.40;100209.19;2150498;83;20995;-83
2022/11/11 13:45:36;;;;;;;11.73;6.55;;;;;;;12.18;73.58;100206.41;2151308;83;21328;-84
2022/11/11 13:48:36;;;;;;;16.00;6.65;;;;;;;12.13;74.08;100208.44;2150559;83;21008;-84
2022/11/11 13:51:36;;;;;;;19.95;7.53;;;;;;;12.11;74.28;100217.09;2150773;83;20968;-83
2022/11/11 13:54:36;;;;;;;17.60;7.42;;;;;;;12.08;74.60;100217.90;2150715;83;20953;-83
2022/11/11 13:57:37;;;;;;;10.45;6.47;;;;;;;12.04;74.84;100209.92;2150996;83;21004;-84
2022/11/11 14:00:37;;;;;;;12.45;6.65;;;;;;;11.97;75.00;100216.72;2151055;83;20952;-83
2022/11/11 14:03:38;;;;;;;15.55;7.22;;;;;;;11.91;74.91;100214.34;2150666;83;21389;-84
2022/11/11 14:06:38;;;;;;;17.95;6.97;;;;;;;11.84;75.00;100218.95;2150998;83;21016;-84
2022/11/11 14:09:38;;;;;;;11.05;6.60;;;;;;;11.79;75.33;100210.97;2150929;83;20960;-85
2022/11/11 14:12:39;;;;;;;18.00;6.95;;;;;;;11.76;75.24;100210.84;2150609;83;21376;-86
2022/11/11 14:15:42;;;;;;;18.07;7.22;;;;;;;11.73;75.43;100211.64;2150716;83;21043;-85
2022/11/11 14:18:42;;;;;;;13.43;7.00;;;;;;;11.66;75.45;100214.92;2150734;83;20897;-84
2022/11/11 14:21:43;;;;;;;15.32;6.83;;;;;;;11.64;75.58;100214.41;2150650;83;21324;-84
2022/11/11 14:24:43;;;;;;;19.57;10.70;;;;;;;11.59;75.91;100223.85;2150666;83;20992;-83
2022/11/11 14:27:45;;;;;;;27.15;15.70;;;;;;;11.55;75.94;100223.30;2130101;83;21052;-84
2022/11/11 14:30:44;;;;;;;9.83;7.67;;;;;;;11.51;76.06;100218.39;2127780;84;20969;-84
2022/11/11 14:33:45;;;;;;;11.33;6.92;;;;;;;11.47;76.20;100214.80;2128393;84;20922;-84
2022/11/11 14:36:45;;;;;;;13.48;6.80;;;;;;;11.44;76.27;100204.67;2127911;84;21345;-84
2022/11/11 14:39:45;;;;;;;14.23;7.10;;;;;;;11.40;76.52;100208.92;2128020;84;20997;-83
2022/11/11 14:42:46;;;;;;;12.10;7.20;;;;;;;11.33;76.67;100208.27;2128110;84;20953;-84
2022/11/11 14:45:46;;;;;;;11.30;7.17;;;;;;;11.27;76.83;100201.55;2128064;84;21318;-85
2022/11/11 14:48:47;;;;;;;14.13;6.85;;;;;;;11.21;76.94;100206.55;2128010;84;20967;-84
2022/11/11 14:51:47;;;;;;;12.47;7.75;;;;;;;11.17;76.99;100211.22;2128054;84;21000;-84
2022/11/11 14:54:47;;;;;;;16.50;8.90;;;;;;;11.10;77.25;100211.88;2127868;84;21310;-84
2022/11/11 14:57:48;;;;;;;12.85;8.18;;;;;;;11.05;77.53;100210.84;2127811;84;21047;-84
2022/11/11 15:00:48;;;;;;;16.75;8.73;;;;;;;10.99;77.67;100215.87;2128104;84;20997;-84